This is the latest recevied weather packets stored in our database for station/object WI0K. If no packets are shown the sender has not sent any weather packets the latest 10 day(s).
| Time | Temp. | Humidity | Pressure | Rain* | Wind** | Luminosity | Snow |
|---|---|---|---|---|---|---|---|
| 1777678325 | 15.56° C | 18% | 1018.8 hPa | 0 mm | - | 71 W/m² | - |
| 1777678024 | 15.56° C | 18% | 1018.8 hPa | 0 mm | - | 121 W/m² | - |
| 1777677723 | 15.56° C | 20% | 831.6 hPa | 0 mm | - | 94 W/m² | - |
| 1777677423 | 15.56° C | 19% | 1018.8 hPa | 0 mm | - | 102 W/m² | - |
| 1777677122 | 15.56° C | 19% | 831.7 hPa | 0 mm | - | 225 W/m² | - |
| 1777676822 | 15.56° C | 19% | 1018.6 hPa | 0 mm | - | 470 W/m² | - |
| 1777676521 | 15.56° C | 20% | 831.7 hPa | 0 mm | - | 477 W/m² | - |
| 1777676468 | 16.11° C | 20% | 831.8 hPa | 0 mm | - | 491 W/m² | - |
| 1777676221 | 16.11° C | 20% | 831.8 hPa | 0 mm | - | 491 W/m² | - |
| 1777675919 | 15.56° C | 20% | 831.7 hPa | 0 mm | - | 510 W/m² | - |
| 1777675619 | 15.56° C | 20% | 1018.9 hPa | 0 mm | - | 542 W/m² | - |
| 1777675318 | 15.56° C | 20% | 1018.8 hPa | 0 mm | - | 557 W/m² | - |
| 1777675017 | 15.56° C | 20% | 1018.8 hPa | 0 mm | - | 573 W/m² | - |
| 1777674717 | 15.56° C | 20% | 1018.8 hPa | 0 mm | - | 615 W/m² | - |
| 1777674417 | 16.11° C | 20% | 1018.9 hPa | 0 mm | - | 615 W/m² | - |
| 1777674116 | 16.11° C | 23% | 831.9 hPa | 0 mm | - | 615 W/m² | - |
| 1777673815 | 15.56° C | 20% | 1019 hPa | 0 mm | - | 636 W/m² | - |
| 1777673514 | 15.56° C | 23% | 831.9 hPa | 0 mm | - | 649 W/m² | - |
| 1777673213 | 15° C | 20% | 1019.1 hPa | 0 mm | - | 663 W/m² | - |
| 1777672912 | 15° C | 19% | 1019.1 hPa | 0 mm | - | 686 W/m² | - |
| 1777672863 | 15.56° C | 21% | 832 hPa | 0 mm | - | 699 W/m² | - |
| 1777672612 | 15.56° C | 21% | 832 hPa | 0 mm | - | 699 W/m² | - |
| 1777672562 | 15.56° C | 21% | 832.1 hPa | 0 mm | - | 714 W/m² | - |
| 1777672311 | 15.56° C | 21% | 832.1 hPa | 0 mm | - | 714 W/m² | - |
| 1777672010 | 15.56° C | 22% | 832.2 hPa | 0 mm | - | 729 W/m² | - |
* Rain latest hour (hover to see other rain measurements)
** Current wind speed in m/s (hover to see current wind gust speed)